Time;durP1;ratioP1;P1;durP2;ratioP2;P2;SDS_P1;SDS_P2;PMS_P1;PMS_P2;Temp;Humidity;BMP_temperature;BMP_pressure;BME280_temperature;BME280_humidity;BME280_pressure;Samples;Min_cycle;Max_cycle;Signal;HPM_P1;HPM_P2
2024/04/18 05:01:24;;;;;;;13.17;7.90;;;;;;;;;;5952061;21;20835;-72
2024/04/18 05:03:50;;;;;;;14.80;8.70;;;;;;;;;;5277960;27;20441;-72
2024/04/18 05:06:16;;;;;;;15.97;8.97;;;;;;;;;;5255848;27;20463;-69
2024/04/18 05:08:45;;;;;;;14.60;6.80;;;;;;;;;;5258595;27;20541;-73
2024/04/18 05:11:11;;;;;;;13.13;7.70;;;;;;;;;;5221324;27;20908;-73
2024/04/18 05:13:37;;;;;;;13.47;7.40;;;;;;;;;;5244823;27;20944;-72
2024/04/18 05:16:03;;;;;;;12.13;8.50;;;;;;;;;;5243625;27;20507;-72
2024/04/18 05:18:29;;;;;;;18.77;8.57;;;;;;;;;;5244305;27;20496;-72
2024/04/18 05:20:55;;;;;;;15.63;9.20;;;;;;;;;;5245275;27;20463;-73
2024/04/18 05:23:21;;;;;;;14.33;8.70;;;;;;;;;;5244738;27;20444;-72
2024/04/18 05:25:47;;;;;;;13.90;8.20;;;;;;;;;;5244372;27;20451;-72
2024/04/18 05:28:20;;;;;;;13.80;8.63;;;;;;;;;;5244314;27;21090;-72
2024/04/18 05:31:01;;;;;;;13.83;9.03;;;;;;;;;;5244124;27;20931;-72
2024/04/18 05:33:30;;;;;;;13.30;8.33;;;;;;;;;;5243087;27;20571;-72
2024/04/18 05:35:57;;;;;;;13.33;7.83;;;;;;;;;;5242122;27;20452;-74
2024/04/18 05:38:23;;;;;;;16.63;8.50;;;;;;;;;;5213573;27;20514;-72
2024/04/18 05:40:49;;;;;;;16.50;9.70;;;;;;;;;;5243157;27;20855;-72
2024/04/18 05:43:15;;;;;;;15.67;9.77;;;;;;;;;;5243599;27;20448;-72
2024/04/18 05:45:43;;;;;;;17.37;9.10;;;;;;;;;;5214062;27;20444;-72
2024/04/18 05:48:09;;;;;;;15.93;9.00;;;;;;;;;;5243221;27;20448;-73
2024/04/18 05:50:35;;;;;;;22.37;9.10;;;;;;;;;;5243269;27;20587;-72
2024/04/18 05:53:01;;;;;;;14.67;8.47;;;;;;;;;;5213861;27;21242;-72
2024/04/18 05:55:27;;;;;;;17.77;7.93;;;;;;;;;;5213664;27;20595;-72
2024/04/18 05:57:53;;;;;;;11.63;7.60;;;;;;;;;;5243635;27;20463;-72
2024/04/18 06:00:19;;;;;;;18.07;10.07;;;;;;;;;;5242368;27;20529;-72
2024/04/18 06:02:45;;;;;;;14.53;9.93;;;;;;;;;;5243116;27;20512;-72
2024/04/18 06:05:11;;;;;;;17.37;9.00;;;;;;;;;;5243463;27;20534;-72
2024/04/18 06:07:37;;;;;;;16.97;9.70;;;;;;;;;;5213448;27;20471;-72
2024/04/18 06:10:03;;;;;;;16.80;10.03;;;;;;;;;;5243380;27;20444;-72
2024/04/18 06:12:29;;;;;;;14.37;8.90;;;;;;;;;;5243464;27;20518;-72
2024/04/18 06:14:55;;;;;;;17.77;10.40;;;;;;;;;;5213971;27;20459;-73
2024/04/18 06:17:21;;;;;;;17.60;10.60;;;;;;;;;;5242598;27;20970;-73
2024/04/18 06:19:51;;;;;;;15.40;9.47;;;;;;;;;;5242675;27;20978;-72
2024/04/18 06:22:17;;;;;;;16.07;9.20;;;;;;;;;;5242224;27;20793;-72
2024/04/18 06:24:43;;;;;;;14.80;9.03;;;;;;;;;;5242190;27;20548;-72
2024/04/18 06:27:09;;;;;;;14.63;9.27;;;;;;;;;;5241812;27;20537;-72
2024/04/18 06:29:35;;;;;;;17.37;10.53;;;;;;;;;;5242623;27;20460;-72
2024/04/18 06:32:02;;;;;;;13.37;8.80;;;;;;;;;;5242354;27;20512;-72
2024/04/18 06:34:28;;;;;;;16.57;9.73;;;;;;;;;;5242279;27;20471;-72
2024/04/18 06:36:54;;;;;;;20.53;11.07;;;;;;;;;;5242109;27;20583;-72
2024/04/18 06:39:20;;;;;;;14.77;9.30;;;;;;;;;;5242292;27;20576;-72
2024/04/18 06:41:46;;;;;;;15.93;9.60;;;;;;;;;;5242330;27;20909;-72
2024/04/18 06:44:12;;;;;;;19.17;10.50;;;;;;;;;;5242613;27;20490;-72
2024/04/18 06:46:38;;;;;;;18.67;10.60;;;;;;;;;;5212598;27;20963;-72
2024/04/18 06:49:04;;;;;;;16.97;9.30;;;;;;;;;;5242148;27;20779;-72
2024/04/18 06:51:30;;;;;;;18.60;10.40;;;;;;;;;;5241992;27;20456;-72
2024/04/18 06:53:56;;;;;;;14.30;8.57;;;;;;;;;;5242448;27;20627;-72
2024/04/18 06:56:22;;;;;;;12.43;8.20;;;;;;;;;;5242183;27;20556;-72
2024/04/18 06:58:48;;;;;;;13.73;8.90;;;;;;;;;;5244967;27;20455;-72
2024/04/18 07:01:14;;;;;;;13.97;8.40;;;;;;;;;;5242197;27;20523;-72
2024/04/18 07:03:40;;;;;;;12.43;7.70;;;;;;;;;;5213001;27;20463;-72
2024/04/18 07:06:06;;;;;;;14.57;9.07;;;;;;;;;;5242240;27;20982;-72
2024/04/18 07:08:34;;;;;;;12.80;8.13;;;;;;;;;;5241564;27;20954;-72
2024/04/18 07:11:01;;;;;;;13.40;7.93;;;;;;;;;;5241870;27;20539;-72
2024/04/18 07:13:27;;;;;;;12.70;7.77;;;;;;;;;;5242431;27;20459;-72
2024/04/18 07:15:53;;;;;;;10.60;6.60;;;;;;;;;;5241911;27;20508;-72
2024/04/18 07:18:19;;;;;;;10.40;6.37;;;;;;;;;;5212327;27;20515;-72
2024/04/18 07:20:45;;;;;;;9.27;5.90;;;;;;;;;;5242059;27;20519;-72
2024/04/18 07:23:11;;;;;;;9.83;6.10;;;;;;;;;;5212419;27;20580;-71
2024/04/18 07:25:37;;;;;;;7.70;5.23;;;;;;;;;;5241982;27;20455;-71
2024/04/18 07:28:03;;;;;;;8.70;5.10;;;;;;;;;;5241895;27;20459;-71
2024/04/18 07:30:29;;;;;;;10.20;5.43;;;;;;;;;;5241983;27;20595;-73
2024/04/18 07:32:55;;;;;;;7.20;5.63;;;;;;;;;;5241984;27;20467;-71
2024/04/18 07:35:23;;;;;;;9.40;6.17;;;;;;;;;;5241891;27;20504;-71
2024/04/18 07:37:51;;;;;;;9.77;6.40;;;;;;;;;;5241690;27;20526;-70
2024/04/18 07:40:20;;;;;;;11.27;6.03;;;;;;;;;;5241698;27;20494;-71
2024/04/18 07:42:49;;;;;;;9.03;5.77;;;;;;;;;;5241412;27;20455;-71
2024/04/18 07:45:15;;;;;;;9.63;6.00;;;;;;;;;;5241575;27;20515;-71
2024/04/18 07:47:41;;;;;;;13.17;7.67;;;;;;;;;;5241194;27;20541;-71
2024/04/18 07:50:08;;;;;;;12.17;7.87;;;;;;;;;;5241358;27;20452;-71
2024/04/18 07:52:34;;;;;;;14.17;8.20;;;;;;;;;;5212168;27;20535;-71
2024/04/18 07:55:00;;;;;;;11.83;7.60;;;;;;;;;;5241291;27;20451;-71
2024/04/18 07:57:26;;;;;;;10.90;7.20;;;;;;;;;;5241143;27;20512;-72
2024/04/18 07:59:52;;;;;;;10.70;7.03;;;;;;;;;;5244038;27;20523;-71
2024/04/18 08:02:18;;;;;;;12.50;7.40;;;;;;;;;;5245123;27;20471;-72
2024/04/18 08:04:44;;;;;;;13.33;7.80;;;;;;;;;;5245625;27;20459;-72
2024/04/18 08:07:10;;;;;;;10.40;6.37;;;;;;;;;;5244226;27;20451;-72
2024/04/18 08:09:36;;;;;;;8.57;6.40;;;;;;;;;;5244011;27;20467;-72
2024/04/18 08:12:02;;;;;;;7.60;5.70;;;;;;;;;;5244257;27;20585;-72
2024/04/18 08:14:28;;;;;;;10.23;5.60;;;;;;;;;;5244727;27;20463;-73
2024/04/18 08:16:55;;;;;;;10.80;6.77;;;;;;;;;;5243756;27;20528;-73
2024/04/18 08:19:21;;;;;;;12.10;5.97;;;;;;;;;;5244439;27;20455;-72
2024/04/18 08:21:47;;;;;;;11.70;6.93;;;;;;;;;;5244092;27;20463;-70
2024/04/18 08:24:21;;;;;;;12.83;7.90;;;;;;;;;;5244172;27;20464;-71
2024/04/18 08:26:47;;;;;;;12.23;7.60;;;;;;;;;;5244099;27;20458;-71
2024/04/18 08:29:13;;;;;;;11.83;7.43;;;;;;;;;;5243992;27;20455;-70
2024/04/18 08:31:39;;;;;;;12.23;8.10;;;;;;;;;;5244256;27;20515;-72
2024/04/18 08:34:05;;;;;;;14.47;7.93;;;;;;;;;;5243657;27;20500;-72
2024/04/18 08:36:31;;;;;;;14.63;8.17;;;;;;;;;;5243280;27;20463;-72
2024/04/18 08:38:57;;;;;;;12.20;7.30;;;;;;;;;;5243541;27;20463;-71
2024/04/18 08:41:23;;;;;;;18.97;8.10;;;;;;;;;;5216850;27;21115;-71
2024/04/18 08:43:49;;;;;;;11.93;7.00;;;;;;;;;;5254464;27;20511;-72
2024/04/18 08:46:16;;;;;;;11.93;7.90;;;;;;;;;;5254441;27;20455;-72
2024/04/18 08:48:45;;;;;;;10.77;6.33;;;;;;;;;;5256292;27;20515;-71
2024/04/18 08:51:11;;;;;;;5.83;4.83;;;;;;;;;;5246757;27;21126;-71
2024/04/18 08:53:37;;;;;;;7.80;4.73;;;;;;;;;;5246992;27;20443;-71
2024/04/18 08:56:05;;;;;;;8.50;5.17;;;;;;;;;;5246936;27;20447;-72
2024/04/18 08:58:31;;;;;;;8.37;5.60;;;;;;;;;;5215143;27;21068;-72
2024/04/18 09:00:57;;;;;;;8.80;5.43;;;;;;;;;;5244291;27;20476;-72
2024/04/18 09:03:24;;;;;;;7.80;6.23;;;;;;;;;;5243821;27;20509;-72
2024/04/18 09:05:50;;;;;;;9.30;5.57;;;;;;;;;;5243745;27;20532;-71
2024/04/18 09:08:16;;;;;;;10.10;5.77;;;;;;;;;;5213921;27;20531;-71
2024/04/18 09:10:42;;;;;;;7.23;5.47;;;;;;;;;;5243005;27;20618;-71
2024/04/18 09:13:11;;;;;;;7.43;5.53;;;;;;;;;;5243885;27;20460;-72
2024/04/18 09:15:37;;;;;;;8.60;5.57;;;;;;;;;;5243773;27;20448;-71
2024/04/18 09:18:07;;;;;;;6.93;5.20;;;;;;;;;;5244091;27;20456;-71
2024/04/18 09:20:38;;;;;;;8.50;5.50;;;;;;;;;;5243603;27;20483;-71
2024/04/18 09:23:04;;;;;;;8.30;5.80;;;;;;;;;;5243775;27;20527;-72
2024/04/18 09:25:31;;;;;;;7.10;5.10;;;;;;;;;;5214315;27;20563;-71
2024/04/18 09:27:57;;;;;;;6.03;4.50;;;;;;;;;;5213552;27;20464;-73
2024/04/18 09:30:23;;;;;;;7.93;5.40;;;;;;;;;;5243626;27;20456;-71
2024/04/18 09:32:49;;;;;;;9.40;4.80;;;;;;;;;;5243529;27;20842;-71
2024/04/18 09:35:16;;;;;;;6.10;4.60;;;;;;;;;;5243638;27;20663;-72
2024/04/18 09:37:43;;;;;;;8.60;5.00;;;;;;;;;;5213888;27;20455;-72
2024/04/18 09:40:10;;;;;;;7.93;5.33;;;;;;;;;;5243374;27;20459;-71
2024/04/18 09:42:42;;;;;;;6.10;4.83;;;;;;;;;;5244104;27;20853;-71
2024/04/18 09:45:10;;;;;;;6.67;4.70;;;;;;;;;;5243491;27;20574;-72
2024/04/18 09:47:37;;;;;;;8.60;5.63;;;;;;;;;;5243357;27;20452;-72
2024/04/18 09:50:03;;;;;;;11.30;5.40;;;;;;;;;;5243700;27;20443;-71
2024/04/18 09:52:29;;;;;;;5.93;4.37;;;;;;;;;;5213845;27;20475;-72
2024/04/18 09:54:56;;;;;;;8.10;5.17;;;;;;;;;;5213618;27;21026;-72
2024/04/18 09:57:22;;;;;;;7.03;4.80;;;;;;;;;;5242858;27;20507;-71
2024/04/18 09:59:50;;;;;;;7.80;5.53;;;;;;;;;;5242588;27;20455;-71
2024/04/18 10:02:16;;;;;;;7.40;5.10;;;;;;;;;;5242678;27;20464;-72
2024/04/18 10:04:43;;;;;;;5.30;4.40;;;;;;;;;;5213514;27;20448;-72
2024/04/18 10:07:10;;;;;;;6.87;3.67;;;;;;;;;;5213473;27;20463;-71
2024/04/18 10:09:36;;;;;;;7.27;2.93;;;;;;;;;;5243098;27;20508;-71
2024/04/18 10:12:02;;;;;;;8.10;4.13;;;;;;;;;;5242621;27;20464;-71
2024/04/18 10:14:28;;;;;;;6.53;4.17;;;;;;;;;;5242663;27;20557;-70
2024/04/18 10:16:54;;;;;;;7.70;4.57;;;;;;;;;;5212983;27;20990;-71
2024/04/18 10:19:21;;;;;;;7.37;4.97;;;;;;;;;;5242509;27;20523;-71
2024/04/18 10:21:55;;;;;;;8.10;4.90;;;;;;;;;;5242027;27;20475;-71
2024/04/18 10:24:21;;;;;;;9.17;6.50;;;;;;;;;;5213521;27;20460;-71
2024/04/18 10:26:47;;;;;;;9.20;5.60;;;;;;;;;;5242656;27;21111;-71
2024/04/18 10:29:26;;;;;;;12.77;5.83;;;;;;;;;;5243025;27;20566;-71
2024/04/18 10:31:55;;;;;;;14.30;6.43;;;;;;;;;;5243464;27;20561;-72
2024/04/18 10:34:23;;;;;;;10.40;6.40;;;;;;;;;;5243073;27;20511;-71
2024/04/18 10:36:49;;;;;;;14.17;7.37;;;;;;;;;;5242535;27;20794;-72
2024/04/18 10:39:31;;;;;;;14.40;6.67;;;;;;;;;;5242742;27;20538;-71
2024/04/18 10:42:03;;;;;;;15.67;8.00;;;;;;;;;;5242729;27;20823;-71
2024/04/18 10:44:30;;;;;;;12.27;7.40;;;;;;;;;;5242880;27;20455;-71
2024/04/18 10:46:55;;;;;;;11.63;6.83;;;;;;;;;;5243113;27;20765;-72
2024/04/18 10:49:24;;;;;;;12.97;6.73;;;;;;;;;;5242524;27;20522;-72
2024/04/18 10:51:51;;;;;;;12.60;6.50;;;;;;;;;;5213466;27;21068;-73
2024/04/18 10:54:17;;;;;;;16.37;7.40;;;;;;;;;;5242766;27;20499;-72
2024/04/18 10:56:43;;;;;;;11.03;7.43;;;;;;;;;;5242416;27;21100;-72
2024/04/18 10:59:09;;;;;;;12.10;6.57;;;;;;;;;;5242664;27;20856;-72
2024/04/18 11:01:38;;;;;;;10.23;6.00;;;;;;;;;;5242004;27;20479;-72
2024/04/18 11:04:05;;;;;;;10.13;4.50;;;;;;;;;;5243068;27;20612;-73
2024/04/18 11:06:31;;;;;;;8.37;4.90;;;;;;;;;;5242215;27;20452;-72
2024/04/18 11:08:59;;;;;;;5.87;4.10;;;;;;;;;;5242887;27;20511;-73
2024/04/18 11:11:32;;;;;;;5.93;3.50;;;;;;;;;;5242378;27;20521;-72
2024/04/18 11:13:58;;;;;;;5.37;3.80;;;;;;;;;;5242652;27;20512;-72
2024/04/18 11:16:27;;;;;;;6.20;4.63;;;;;;;;;;5241704;27;20455;-72
2024/04/18 11:18:56;;;;;;;5.47;4.00;;;;;;;;;;5241450;27;20568;-73
2024/04/18 11:21:24;;;;;;;5.80;4.20;;;;;;;;;;5241637;27;20463;-72
2024/04/18 11:23:55;;;;;;;6.23;4.30;;;;;;;;;;5241148;27;20503;-72
2024/04/18 11:26:21;;;;;;;6.37;4.70;;;;;;;;;;5241469;27;20978;-73
2024/04/18 11:28:57;;;;;;;8.83;5.70;;;;;;;;;;5241781;27;20542;-72
2024/04/18 11:31:23;;;;;;;6.37;5.13;;;;;;;;;;5242023;27;20583;-72
2024/04/18 11:33:49;;;;;;;6.13;4.73;;;;;;;;;;5213621;27;20471;-72
2024/04/18 11:36:15;;;;;;;7.37;5.50;;;;;;;;;;5244619;27;20646;-72
2024/04/18 11:38:41;;;;;;;6.90;5.33;;;;;;;;;;5245121;27;20823;-72
2024/04/18 11:41:08;;;;;;;8.60;5.53;;;;;;;;;;5244435;27;20564;-72
2024/04/18 11:43:34;;;;;;;9.20;5.70;;;;;;;;;;5244639;27;20986;-72
2024/04/18 11:46:00;;;;;;;9.37;4.67;;;;;;;;;;5244794;27;20530;-72
2024/04/18 11:48:26;;;;;;;11.23;4.53;;;;;;;;;;5244926;27;20508;-72
2024/04/18 11:50:52;;;;;;;6.30;4.50;;;;;;;;;;5245066;27;20467;-72
2024/04/18 11:53:18;;;;;;;6.50;4.90;;;;;;;;;;5244789;27;20448;-72
2024/04/18 11:55:44;;;;;;;6.97;4.43;;;;;;;;;;5244585;27;20455;-72
2024/04/18 11:58:10;;;;;;;10.70;5.30;;;;;;;;;;5244445;27;20986;-73
2024/04/18 12:00:36;;;;;;;6.00;4.53;;;;;;;;;;5244893;27;20868;-72
2024/04/18 12:03:03;;;;;;;6.47;4.57;;;;;;;;;;5244947;27;20458;-72
2024/04/18 12:05:29;;;;;;;8.60;4.37;;;;;;;;;;5214689;27;20475;-72
2024/04/18 12:07:55;;;;;;;10.50;5.27;;;;;;;;;;5244486;27;20455;-72
2024/04/18 12:10:21;;;;;;;9.00;5.77;;;;;;;;;;5244037;27;20504;-72
2024/04/18 12:12:47;;;;;;;7.90;5.30;;;;;;;;;;5214964;27;20471;-72
2024/04/18 12:15:13;;;;;;;8.77;5.90;;;;;;;;;;5244415;27;20583;-72
2024/04/18 12:17:39;;;;;;;9.10;5.97;;;;;;;;;;5214487;27;20458;-72
2024/04/18 12:20:05;;;;;;;8.83;5.00;;;;;;;;;;5244108;27;20455;-72
2024/04/18 12:22:31;;;;;;;9.03;5.70;;;;;;;;;;5214596;27;21018;-74
2024/04/18 12:24:58;;;;;;;9.73;6.23;;;;;;;;;;5244643;27;20467;-73
2024/04/18 12:27:24;;;;;;;11.00;6.37;;;;;;;;;;5243784;27;20878;-72
2024/04/18 12:29:50;;;;;;;14.63;7.30;;;;;;;;;;5244231;27;20448;-72
2024/04/18 12:32:20;;;;;;;15.93;7.97;;;;;;;;;;5245083;27;20979;-71
2024/04/18 12:34:47;;;;;;;14.40;7.70;;;;;;;;;;5244735;27;20451;-71
2024/04/18 12:37:13;;;;;;;11.33;7.40;;;;;;;;;;5243883;27;20451;-72
2024/04/18 12:39:39;;;;;;;8.00;5.63;;;;;;;;;;5244326;27;21035;-72
2024/04/18 12:42:05;;;;;;;9.40;6.00;;;;;;;;;;5244436;27;20531;-72
2024/04/18 12:44:31;;;;;;;10.43;6.27;;;;;;;;;;5243705;27;21115;-72
2024/04/18 12:46:57;;;;;;;6.90;5.60;;;;;;;;;;5243356;27;20504;-72
2024/04/18 12:49:23;;;;;;;9.77;5.80;;;;;;;;;;5243723;27;20508;-73
2024/04/18 12:51:49;;;;;;;10.43;5.17;;;;;;;;;;5243848;27;20471;-73
2024/04/18 12:54:15;;;;;;;10.33;6.20;;;;;;;;;;5244059;27;20529;-73
2024/04/18 12:56:41;;;;;;;10.53;5.77;;;;;;;;;;5243808;27;20525;-73
2024/04/18 12:59:07;;;;;;;6.37;4.53;;;;;;;;;;5244934;27;20459;-73
2024/04/18 13:01:33;;;;;;;6.50;4.40;;;;;;;;;;5243978;27;21011;-73
2024/04/18 13:04:00;;;;;;;7.63;5.17;;;;;;;;;;5244177;27;20500;-72
2024/04/18 13:06:27;;;;;;;9.30;6.00;;;;;;;;;;5242860;27;20969;-73
2024/04/18 13:08:53;;;;;;;10.10;5.57;;;;;;;;;;5243818;27;20444;-73
2024/04/18 13:11:19;;;;;;;9.40;5.57;;;;;;;;;;5243885;27;20467;-72
2024/04/18 13:13:45;;;;;;;6.67;4.60;;;;;;;;;;5244363;27;20444;-72
2024/04/18 13:16:11;;;;;;;6.80;4.30;;;;;;;;;;5243889;27;20576;-72
2024/04/18 13:18:37;;;;;;;7.67;5.90;;;;;;;;;;5243350;27;20452;-71
2024/04/18 13:21:03;;;;;;;7.57;5.13;;;;;;;;;;5244116;27;20520;-73
2024/04/18 13:23:30;;;;;;;7.23;4.73;;;;;;;;;;5243443;27;20439;-73
2024/04/18 13:25:56;;;;;;;9.60;4.43;;;;;;;;;;5243602;27;20558;-72
2024/04/18 13:28:21;;;;;;;5.67;4.17;;;;;;;;;;5243513;27;20447;-73
2024/04/18 13:30:47;;;;;;;7.37;5.27;;;;;;;;;;5243300;27;20520;-73
2024/04/18 13:33:13;;;;;;;7.70;4.73;;;;;;;;;;5243690;27;20448;-73
2024/04/18 13:35:39;;;;;;;4.87;3.97;;;;;;;;;;5243454;27;20448;-73
2024/04/18 13:38:05;;;;;;;6.13;3.30;;;;;;;;;;5242813;27;20452;-72
2024/04/18 13:40:31;;;;;;;6.83;3.77;;;;;;;;;;5243201;27;20468;-72
2024/04/18 13:43:00;;;;;;;4.30;3.70;;;;;;;;;;5243907;27;20540;-72
2024/04/18 13:45:26;;;;;;;5.37;3.80;;;;;;;;;;5243989;27;20560;-72
2024/04/18 13:47:52;;;;;;;4.30;3.23;;;;;;;;;;5243841;27;20443;-72
2024/04/18 13:50:18;;;;;;;4.17;3.20;;;;;;;;;;5244071;27;20452;-72
2024/04/18 13:52:44;;;;;;;7.43;4.70;;;;;;;;;;5243298;27;20508;-73
2024/04/18 13:55:10;;;;;;;4.00;3.07;;;;;;;;;;5243287;27;20502;-73
2024/04/18 13:57:36;;;;;;;9.87;3.00;;;;;;;;;;5242428;27;20978;-73
2024/04/18 14:00:02;;;;;;;3.60;2.17;;;;;;;;;;5243357;27;20455;-73
2024/04/18 14:02:29;;;;;;;4.80;2.97;;;;;;;;;;5243000;27;20471;-73
2024/04/18 14:04:55;;;;;;;6.20;3.37;;;;;;;;;;5242879;27;20506;-72
2024/04/18 14:07:21;;;;;;;9.90;3.10;;;;;;;;;;5212888;27;20463;-72
2024/04/18 14:09:47;;;;;;;3.30;2.83;;;;;;;;;;5242658;27;20892;-73
2024/04/18 14:12:13;;;;;;;2.83;2.63;;;;;;;;;;5242718;27;20521;-72
2024/04/18 14:14:39;;;;;;;3.90;3.03;;;;;;;;;;5242688;27;20498;-73
2024/04/18 14:19:50;;;;;;;3.73;3.17;;;;;;;;;;5242663;27;21070;-72
2024/04/18 14:22:16;;;;;;;3.63;2.90;;;;;;;;;;5242554;27;20479;-72
2024/04/18 14:24:42;;;;;;;3.70;2.67;;;;;;;;;;5243426;27;20522;-71
2024/04/18 14:27:08;;;;;;;5.00;2.33;;;;;;;;;;5213340;27;20511;-72
2024/04/18 14:29:34;;;;;;;4.63;2.60;;;;;;;;;;5242809;27;20463;-73
2024/04/18 14:32:00;;;;;;;2.57;2.40;;;;;;;;;;5242706;27;20595;-72
2024/04/18 14:34:26;;;;;;;2.70;2.50;;;;;;;;;;5242446;27;20452;-72
2024/04/18 14:36:52;;;;;;;5.60;3.13;;;;;;;;;;5242176;27;20583;-72
2024/04/18 14:39:18;;;;;;;7.83;4.00;;;;;;;;;;5213062;27;20567;-72
2024/04/18 14:41:44;;;;;;;5.00;4.00;;;;;;;;;;5242795;27;20475;-72
2024/04/18 14:44:10;;;;;;;6.80;4.10;;;;;;;;;;5242741;27;20586;-73
2024/04/18 14:46:40;;;;;;;6.13;4.20;;;;;;;;;;5242414;27;20808;-72
2024/04/18 14:49:12;;;;;;;6.80;4.10;;;;;;;;;;5242994;27;20463;-73
2024/04/18 14:51:38;;;;;;;5.40;3.40;;;;;;;;;;5242637;27;20522;-72
2024/04/18 14:54:04;;;;;;;10.90;3.57;;;;;;;;;;5242651;27;20607;-73
2024/04/18 14:56:30;;;;;;;3.10;2.77;;;;;;;;;;5242588;27;20564;-72
2024/04/18 14:58:56;;;;;;;3.73;2.87;;;;;;;;;;5242805;27;20467;-72
2024/04/18 15:01:23;;;;;;;3.23;2.53;;;;;;;;;;5242465;27;20519;-72
2024/04/18 15:03:49;;;;;;;4.77;3.13;;;;;;;;;;5242992;27;20523;-71
2024/04/18 15:06:16;;;;;;;4.93;2.30;;;;;;;;;;5242394;27;20451;-71
2024/04/18 15:08:42;;;;;;;3.80;2.77;;;;;;;;;;5241379;27;20468;-73
2024/04/18 15:11:09;;;;;;;4.00;2.73;;;;;;;;;;5242455;27;20602;-72
2024/04/18 15:13:35;;;;;;;3.60;2.97;;;;;;;;;;5242307;27;20562;-71
2024/04/18 15:16:01;;;;;;;4.37;3.10;;;;;;;;;;5242323;27;20884;-73
2024/04/18 15:18:27;;;;;;;3.50;2.80;;;;;;;;;;5242118;27;20455;-73
2024/04/18 15:20:53;;;;;;;5.37;3.00;;;;;;;;;;5242323;27;20472;-72
2024/04/18 15:23:19;;;;;;;2.57;2.40;;;;;;;;;;5242070;27;20500;-71
2024/04/18 15:25:45;;;;;;;3.70;2.63;;;;;;;;;;5242526;27;20467;-72
2024/04/18 15:28:11;;;;;;;5.90;3.40;;;;;;;;;;5212649;27;20516;-72
2024/04/18 15:30:37;;;;;;;4.80;3.23;;;;;;;;;;5242184;27;20471;-71
2024/04/18 15:33:03;;;;;;;2.80;2.60;;;;;;;;;;5241845;27;20459;-73
2024/04/18 15:35:30;;;;;;;4.40;3.03;;;;;;;;;;5241614;27;20569;-72
2024/04/18 15:37:56;;;;;;;4.23;2.70;;;;;;;;;;5241449;27;20507;-72
2024/04/18 15:40:22;;;;;;;2.63;2.43;;;;;;;;;;5241486;27;20463;-72
2024/04/18 15:42:48;;;;;;;4.33;2.90;;;;;;;;;;5241512;27;20578;-72
2024/04/18 15:45:14;;;;;;;5.70;3.00;;;;;;;;;;5241140;27;21042;-73
2024/04/18 15:47:40;;;;;;;3.30;2.90;;;;;;;;;;5241436;27;20451;-72
2024/04/18 15:50:06;;;;;;;4.83;2.07;;;;;;;;;;5241757;27;21099;-72
2024/04/18 15:52:33;;;;;;;2.27;1.90;;;;;;;;;;5212142;27;20555;-72
2024/04/18 15:54:59;;;;;;;4.30;2.87;;;;;;;;;;5212170;27;20873;-72
2024/04/18 15:57:25;;;;;;;4.73;2.70;;;;;;;;;;5241504;27;21041;-72
2024/04/18 15:59:51;;;;;;;4.40;3.03;;;;;;;;;;5241419;27;20451;-71
2024/04/18 16:02:17;;;;;;;4.70;2.83;;;;;;;;;;5241123;27;20596;-72
2024/04/18 16:04:43;;;;;;;4.57;2.80;;;;;;;;;;5241628;27;20452;-72
2024/04/18 16:07:09;;;;;;;3.53;2.80;;;;;;;;;;5211377;27;20502;-73
2024/04/18 16:09:35;;;;;;;5.40;2.67;;;;;;;;;;5241455;27;20459;-72
2024/04/18 16:12:01;;;;;;;4.60;3.03;;;;;;;;;;5240940;27;20527;-73
2024/04/18 16:14:28;;;;;;;8.53;3.43;;;;;;;;;;5241090;27;20460;-73
2024/04/18 16:16:54;;;;;;;5.30;3.30;;;;;;;;;;5240565;27;20456;-73
2024/04/18 16:19:20;;;;;;;5.80;3.40;;;;;;;;;;5241448;27;20978;-72
2024/04/18 16:21:46;;;;;;;6.20;3.67;;;;;;;;;;5244302;27;20861;-73
2024/04/18 16:24:11;;;;;;;5.77;3.40;;;;;;;;;;5244499;27;20496;-73
2024/04/18 16:26:37;;;;;;;6.10;3.73;;;;;;;;;;5243907;27;20857;-73
2024/04/18 16:29:04;;;;;;;6.70;3.77;;;;;;;;;;5244628;27;20455;-73
2024/04/18 16:31:30;;;;;;;6.30;4.20;;;;;;;;;;5244342;27;20795;-73
2024/04/18 16:33:56;;;;;;;4.67;3.43;;;;;;;;;;5244317;27;20778;-73
2024/04/18 16:36:22;;;;;;;7.40;4.23;;;;;;;;;;5243588;27;20455;-73
2024/04/18 16:38:48;;;;;;;5.67;3.30;;;;;;;;;;5243988;27;20607;-73
2024/04/18 16:41:14;;;;;;;5.70;3.90;;;;;;;;;;5244040;27;20828;-73
2024/04/18 16:43:40;;;;;;;5.13;3.30;;;;;;;;;;5243750;27;20447;-73
2024/04/18 16:46:06;;;;;;;5.40;4.10;;;;;;;;;;5243643;27;20455;-73
2024/04/18 16:48:32;;;;;;;4.07;3.30;;;;;;;;;;5214117;27;20963;-73
2024/04/18 16:50:58;;;;;;;4.80;3.53;;;;;;;;;;5214122;27;21062;-73
2024/04/18 16:53:24;;;;;;;5.00;3.10;;;;;;;;;;5243640;27;20456;-73
2024/04/18 16:55:50;;;;;;;5.40;3.40;;;;;;;;;;5244018;27;20492;-73
2024/04/18 16:58:16;;;;;;;6.80;3.60;;;;;;;;;;5243749;27;20459;-73
2024/04/18 17:00:42;;;;;;;6.10;3.07;;;;;;;;;;5243850;27;21006;-73
2024/04/18 17:03:08;;;;;;;10.93;3.50;;;;;;;;;;5214684;27;20908;-71
2024/04/18 17:05:35;;;;;;;5.70;2.90;;;;;;;;;;5243416;27;20527;-73
2024/04/18 17:08:01;;;;;;;3.80;2.43;;;;;;;;;;5243422;27;20455;-72
2024/04/18 17:10:27;;;;;;;4.00;2.90;;;;;;;;;;5243681;27;20844;-72
2024/04/18 17:12:53;;;;;;;3.63;2.23;;;;;;;;;;5243687;27;20447;-72
2024/04/18 17:15:19;;;;;;;2.60;2.40;;;;;;;;;;5243945;27;20501;-72
2024/04/18 17:17:45;;;;;;;2.90;2.60;;;;;;;;;;5244280;27;20463;-72
2024/04/18 17:20:11;;;;;;;3.90;3.10;;;;;;;;;;5243318;27;20639;-72
2024/04/18 17:22:37;;;;;;;4.87;2.97;;;;;;;;;;5243625;27;20456;-71
2024/04/18 17:25:03;;;;;;;3.57;2.87;;;;;;;;;;5213993;27;20471;-71
2024/04/18 17:27:29;;;;;;;3.80;3.10;;;;;;;;;;5242840;27;20479;-71
2024/04/18 17:29:55;;;;;;;3.33;2.63;;;;;;;;;;5243861;27;20583;-71
2024/04/18 17:32:23;;;;;;;3.70;2.87;;;;;;;;;;5242464;27;20464;-71
2024/04/18 17:34:49;;;;;;;3.50;2.80;;;;;;;;;;5214355;27;20877;-71
2024/04/18 17:37:15;;;;;;;5.10;3.30;;;;;;;;;;5243806;27;20447;-70
2024/04/18 17:39:41;;;;;;;3.80;3.27;;;;;;;;;;5243668;27;20897;-71
2024/04/18 17:42:07;;;;;;;3.90;3.00;;;;;;;;;;5243266;27;20468;-71
2024/04/18 17:44:33;;;;;;;6.17;3.40;;;;;;;;;;5243559;27;20500;-70
2024/04/18 17:47:00;;;;;;;4.90;3.27;;;;;;;;;;5242966;27;20460;-71
2024/04/18 17:49:26;;;;;;;8.33;3.63;;;;;;;;;;5213683;27;20467;-71
2024/04/18 17:51:52;;;;;;;4.30;3.50;;;;;;;;;;5243285;27;20467;-71
2024/04/18 17:54:18;;;;;;;3.97;3.60;;;;;;;;;;5243092;27;20571;-71
2024/04/18 17:56:45;;;;;;;4.53;3.30;;;;;;;;;;5242741;27;20452;-71
2024/04/18 17:59:13;;;;;;;4.70;3.77;;;;;;;;;;5243065;27;20498;-71
2024/04/18 18:01:42;;;;;;;6.87;4.60;;;;;;;;;;5242532;27;20467;-72
2024/04/18 18:04:09;;;;;;;9.00;3.90;;;;;;;;;;5242984;27;20924;-71
2024/04/18 18:06:35;;;;;;;7.27;4.17;;;;;;;;;;5213311;27;20467;-71
2024/04/18 18:09:00;;;;;;;6.73;4.00;;;;;;;;;;5243357;27;20579;-71
2024/04/18 18:11:26;;;;;;;4.47;3.73;;;;;;;;;;5242684;27;20534;-71
2024/04/18 18:13:57;;;;;;;5.43;3.83;;;;;;;;;;5242621;27;20501;-71
2024/04/18 18:16:23;;;;;;;9.20;4.17;;;;;;;;;;5242208;27;20509;-71
2024/04/18 18:18:48;;;;;;;4.63;3.00;;;;;;;;;;5242419;27;20827;-70
2024/04/18 18:21:16;;;;;;;7.37;4.13;;;;;;;;;;5212998;27;21066;-70
2024/04/18 18:23:42;;;;;;;5.30;4.20;;;;;;;;;;5242817;27;20559;-70
2024/04/18 18:26:08;;;;;;;7.83;4.73;;;;;;;;;;5242672;27;20490;-70
2024/04/18 18:28:34;;;;;;;7.47;4.20;;;;;;;;;;5242753;27;20464;-70
2024/04/18 18:31:00;;;;;;;5.50;4.20;;;;;;;;;;5242564;27;20475;-71
2024/04/18 18:33:26;;;;;;;8.10;4.90;;;;;;;;;;5242454;27;20456;-71
2024/04/18 18:35:52;;;;;;;7.97;5.20;;;;;;;;;;5242950;27;20459;-71
2024/04/18 18:38:18;;;;;;;5.70;4.17;;;;;;;;;;5242465;27;20515;-70
2024/04/18 18:40:45;;;;;;;11.47;5.90;;;;;;;;;;5242753;27;20530;-71
2024/04/18 18:43:11;;;;;;;6.97;5.10;;;;;;;;;;5242696;27;20518;-70
2024/04/18 18:45:36;;;;;;;8.40;4.50;;;;;;;;;;5242535;27;20471;-71
2024/04/18 18:48:03;;;;;;;9.13;5.07;;;;;;;;;;5242358;27;20514;-71
2024/04/18 18:50:29;;;;;;;10.53;4.73;;;;;;;;;;5242680;27;20824;-70
2024/04/18 18:52:55;;;;;;;6.90;3.70;;;;;;;;;;5242614;27;20499;-70
2024/04/18 18:55:21;;;;;;;7.53;5.33;;;;;;;;;;5242389;27;20467;-70
2024/04/18 18:57:47;;;;;;;6.00;4.37;;;;;;;;;;5241655;27;20570;-70
2024/04/18 19:00:17;;;;;;;7.80;4.70;;;;;;;;;;5212577;27;20967;-70
2024/04/18 19:02:43;;;;;;;8.40;4.80;;;;;;;;;;5242139;27;20519;-70
2024/04/18 19:05:09;;;;;;;9.33;4.97;;;;;;;;;;5241145;27;20575;-71
2024/04/18 19:07:34;;;;;;;11.50;5.90;;;;;;;;;;5240343;27;20451;-71
2024/04/18 19:10:00;;;;;;;10.53;5.43;;;;;;;;;;5240365;27;20512;-71
2024/04/18 19:12:26;;;;;;;10.90;6.20;;;;;;;;;;5240382;27;20543;-71
2024/04/18 19:14:52;;;;;;;11.93;6.00;;;;;;;;;;5240400;27;20456;-71
2024/04/18 19:17:19;;;;;;;13.53;7.80;;;;;;;;;;5239983;27;20538;-70
2024/04/18 19:19:45;;;;;;;7.00;5.87;;;;;;;;;;5211418;27;20538;-70
2024/04/18 19:22:11;;;;;;;13.17;7.60;;;;;;;;;;5240558;27;20468;-70
2024/04/18 19:24:37;;;;;;;10.70;6.93;;;;;;;;;;5211129;27;20878;-71
2024/04/18 19:27:03;;;;;;;13.23;7.83;;;;;;;;;;5211007;27;20487;-71
2024/04/18 19:29:29;;;;;;;14.17;7.73;;;;;;;;;;5240729;27;20514;-70
2024/04/18 19:31:55;;;;;;;13.67;7.97;;;;;;;;;;5239387;27;20483;-72
2024/04/18 19:34:21;;;;;;;13.00;7.00;;;;;;;;;;5212919;27;20471;-70
2024/04/18 19:36:47;;;;;;;16.53;7.23;;;;;;;;;;5240626;27;20503;-71